« あ、スコット 百里飛行場 2014/11/28 fri | トップページ | 築城基地航空祭【飛行編1】 築城飛行場 2014/11/30 sun »

2014/11/30

夕暮れ 成田国際空港 2014/11/28 fri

秋の日差しは、つるべ落とし。15時を過ぎると、もう薄暗くなってくる。道すがら、Bラン脇鳥篭に寄道。流し撮りの訓練となった。未熟物につき、使えない写真も多く、一部記録できてない。

RJAA 280630Z 16005KT 9999 FEW020 BKN060 BKN080 16/10 Q1022 NOSIG RMK 1CU020 5SC060 6AC080 A3019

20141128_rjaa_00ja02va_2


VNL102 RCTP-RJAA JA02VA A320-216

20141128_rjaa_01ja615j

JAL736 VHHH-RJAA JA615J B767-346ER

20141128_rjaa_02ja826j

JAL7 KBOS-RJAA JA826J B787-8

20141128_rjaa_03ja06jj

JJP620 RJFF-RJAA JA06JJ A320-232

20141128_rjaa_04ja462a

ANA3240 RJSN-RJAA JA462A DHC-8-402Q

20141128_rjaa_05jaj

JAL750

先行の-8がRWを離脱きらずに管制指示でG/A

20141128_rjaa_06ja09rj

IBX14 RJOA-RJAA JA09RJ CRJ-702ER

20141128_rjaa_07ja621a

ANA836 WIII-RJAA JA621A B767-381ER

20141128_rjaa_08ja01va_2

VNL802 ROAH-RJAA JA01VA A320-214

20141128_rjaa_09ja830j

JAL17 CVVR-RJAA JA830J B787-8

20141128_rjaa_10th

THA676 VTBS-RJAA HS-TUC A380-841

チョット後を振り返ってAランへの380をスナップ

20141128_rjaa_11ja608j

JAL750 VVTS-RJAA JA608J B767-346ER

20141128_rjaa_12ja326j

JAL3084 RJGG-RJAA JA326J B737-846

20141128_rjaa_13ja16an

ANA2146 RJFF-RJAA JA16AN B737-781

20141128_rjaa_14ja620j

JAL712 WSSS-RJAA JA620J B767-346ER

RJAA 280700Z 15004KT 9999 FEW020 BKN060 BKN080 16/10 Q1022 NOSIG RMK 1CU020 5SC060 7AC080 A3019

20141128_rjaa_15ja601j

JAL708 VTBS-RJAAJA601J B767-346ER

20141128_rjaa_16ja616j

JAL954 RKSI-RJAA JA616J B767-346ER

20141128_rjaa_17ja345j

JAL3006 RJOO-RJAA JA345J B737-846

20141128_rjaa_18ja02gr

SJO614 RJOT-RJAA JA02GR B737-86N

20141128_rjaa_19n793an

AAL61 KDFW-RJAA N793AN B777-223ER

|

« あ、スコット 百里飛行場 2014/11/28 fri | トップページ | 築城基地航空祭【飛行編1】 築城飛行場 2014/11/30 sun »

成田国際空港」カテゴリの記事

コメント

コメントを書く



(ウェブ上には掲載しません)


コメントは記事投稿者が公開するまで表示されません。



トラックバック


この記事へのトラックバック一覧です: 夕暮れ 成田国際空港 2014/11/28 fri:

« あ、スコット 百里飛行場 2014/11/28 fri | トップページ | 築城基地航空祭【飛行編1】 築城飛行場 2014/11/30 sun »